createdAt,value
2022-12-23T00:00:11.389Z,23.30
2022-12-23T00:02:44.050Z,20.45
2022-12-23T00:05:16.345Z,21.52
2022-12-23T00:07:49.747Z,20.77
2022-12-23T00:10:21.839Z,21.67
2022-12-23T00:13:12.083Z,29.00
2022-12-23T00:18:15.875Z,18.52
2022-12-23T00:20:47.899Z,22.15
2022-12-23T00:23:21.219Z,19.70
2022-12-23T00:25:53.277Z,21.05
2022-12-23T00:28:26.182Z,21.55
2022-12-23T00:31:00.944Z,23.17
2022-12-23T00:33:35.181Z,20.67
2022-12-23T00:36:15.648Z,18.95
2022-12-23T00:39:07.925Z,24.83
2022-12-23T00:41:58.491Z,21.20
2022-12-23T00:44:30.745Z,20.33
2022-12-23T00:47:02.710Z,27.23
2022-12-23T00:49:43.704Z,20.23
2022-12-23T00:52:15.978Z,20.50
2022-12-23T00:54:49.264Z,19.38
2022-12-23T00:57:21.219Z,21.55
2022-12-23T00:59:53.142Z,21.35
2022-12-23T01:02:43.966Z,20.00
2022-12-23T01:05:34.593Z,21.35
2022-12-23T01:08:08.802Z,21.77
2022-12-23T01:10:42.127Z,21.27
2022-12-23T01:13:14.106Z,19.77
2022-12-23T01:15:46.052Z,18.40
2022-12-23T01:18:18.019Z,20.33
2022-12-23T01:20:50.054Z,25.20
2022-12-23T01:23:22.708Z,17.80
2022-12-23T01:26:00.795Z,23.80
2022-12-23T01:28:33.605Z,18.75
2022-12-23T01:31:06.332Z,19.10
2022-12-23T01:33:38.358Z,21.45
2022-12-23T01:36:10.905Z,24.30
2022-12-23T01:38:43.066Z,21.30
2022-12-23T01:41:37.733Z,23.42
2022-12-23T01:44:50.031Z,23.83
2022-12-23T01:47:28.011Z,17.90
2022-12-23T01:50:05.906Z,20.20
2022-12-23T01:52:43.585Z,17.60
2022-12-23T01:55:18.909Z,26.35
2022-12-23T01:57:55.818Z,19.00
2022-12-23T02:00:46.474Z,26.77
2022-12-23T02:03:37.338Z,21.25
2022-12-23T02:06:29.949Z,26.48
2022-12-23T02:09:19.851Z,22.98
2022-12-23T02:12:10.558Z,28.00
2022-12-23T02:15:30.028Z,20.05
2022-12-23T02:18:14.616Z,22.37
2022-12-23T02:21:15.300Z,33.63
2022-12-23T02:24:16.472Z,31.20
2022-12-23T02:27:01.869Z,28.92
2022-12-23T02:30:03.427Z,23.15
2022-12-23T02:33:14.409Z,25.67
2022-12-23T02:35:55.420Z,28.63
2022-12-23T02:38:34.029Z,27.20
2022-12-23T02:41:15.602Z,36.50
2022-12-23T02:43:53.546Z,34.20
2022-12-23T02:46:33.268Z,56.42
2022-12-23T02:49:12.089Z,28.67
2022-12-23T02:51:48.157Z,44.95
2022-12-23T02:54:27.051Z,36.60
2022-12-23T02:57:02.717Z,48.97
2022-12-23T02:59:39.782Z,44.25
2022-12-23T03:02:11.962Z,27.90
2022-12-23T03:04:45.463Z,40.92
2022-12-23T03:07:20.700Z,70.93
2022-12-23T03:10:01.722Z,46.95
2022-12-23T03:12:49.931Z,50.58
2022-12-23T03:15:33.140Z,50.75
2022-12-23T03:18:12.474Z,33.65
2022-12-23T03:20:51.636Z,33.72
2022-12-23T03:23:28.068Z,37.72
2022-12-23T03:26:04.866Z,41.78
2022-12-23T03:28:42.963Z,37.53
2022-12-23T03:31:18.724Z,41.72
2022-12-23T03:33:56.313Z,67.25
2022-12-23T03:36:34.976Z,97.38
2022-12-23T03:39:10.737Z,42.92
2022-12-23T03:41:49.433Z,75.53
2022-12-23T03:44:26.482Z,56.78
2022-12-23T03:47:05.477Z,59.33
2022-12-23T03:49:41.843Z,49.22
2022-12-23T03:52:21.636Z,60.35
2022-12-23T03:54:55.962Z,56.35
2022-12-23T03:57:32.856Z,50.50
2022-12-23T04:00:06.668Z,66.95
2022-12-23T04:02:46.304Z,53.88
2022-12-23T04:05:23.734Z,48.30
2022-12-23T04:08:06.621Z,69.72
2022-12-23T04:10:38.945Z,55.72
2022-12-23T04:13:10.969Z,42.90
2022-12-23T04:15:43.343Z,51.50
2022-12-23T04:18:16.467Z,82.15
2022-12-23T04:20:48.394Z,89.95
2022-12-23T04:23:21.745Z,67.15
2022-12-23T04:25:53.778Z,61.70
2022-12-23T04:28:25.681Z,132.45
2022-12-23T04:30:57.670Z,104.07
2022-12-23T04:33:29.695Z,102.10
2022-12-23T04:36:01.672Z,44.38
2022-12-23T04:38:34.987Z,139.20
2022-12-23T04:41:06.979Z,76.00
2022-12-23T04:43:38.903Z,48.60
2022-12-23T04:46:10.922Z,93.43
2022-12-23T04:48:42.867Z,59.20
2022-12-23T04:51:14.962Z,64.57
2022-12-23T04:53:48.248Z,237.85
2022-12-23T04:56:20.292Z,49.38
2022-12-23T04:58:52.220Z,82.00
2022-12-23T05:01:24.253Z,81.43
2022-12-23T05:03:56.173Z,83.72
2022-12-23T05:06:28.212Z,82.53
2022-12-23T05:09:01.937Z,125.28
2022-12-23T05:11:38.530Z,63.30
2022-12-23T05:14:13.952Z,61.30
2022-12-23T05:16:45.935Z,71.53
2022-12-23T05:19:17.907Z,105.55
2022-12-23T05:21:49.873Z,91.65
2022-12-23T05:24:23.189Z,95.15
2022-12-23T05:26:59.796Z,123.40
2022-12-23T05:29:32.191Z,72.85
2022-12-23T05:32:04.689Z,53.25
2022-12-23T05:34:36.618Z,78.50
2022-12-23T05:37:08.620Z,58.17
2022-12-23T05:39:41.998Z,113.55
2022-12-23T05:42:19.307Z,53.75
2022-12-23T05:44:51.301Z,154.73
2022-12-23T05:47:23.299Z,186.68
2022-12-23T05:49:55.277Z,142.48
2022-12-23T05:52:27.250Z,92.22
2022-12-23T05:55:00.617Z,80.65
2022-12-23T05:57:32.683Z,136.50
2022-12-23T06:00:05.350Z,93.00
2022-12-23T06:02:48.463Z,45.38
2022-12-23T06:05:23.777Z,82.35
2022-12-23T06:07:55.806Z,99.22
2022-12-23T06:10:29.300Z,82.22
2022-12-23T06:13:01.278Z,63.15
2022-12-23T06:15:33.209Z,82.57
2022-12-23T06:18:05.236Z,45.05
2022-12-23T06:20:37.150Z,40.60
2022-12-23T06:23:09.153Z,70.15
2022-12-23T06:25:42.479Z,43.17
2022-12-23T06:28:14.520Z,98.25
2022-12-23T06:30:46.412Z,41.10
2022-12-23T06:33:18.410Z,54.17
2022-12-23T06:35:50.598Z,72.68
2022-12-23T06:38:22.741Z,45.65
2022-12-23T06:40:56.117Z,36.15
2022-12-23T06:43:29.249Z,38.40
2022-12-23T06:46:01.259Z,50.03
2022-12-23T06:48:33.280Z,31.92
2022-12-23T06:51:05.669Z,38.88
2022-12-23T06:53:37.657Z,34.70
2022-12-23T06:56:11.091Z,33.63
2022-12-23T06:58:43.110Z,26.38
2022-12-23T07:01:15.147Z,30.45
2022-12-23T07:03:47.600Z,51.38
2022-12-23T07:06:19.578Z,42.83
2022-12-23T07:08:51.573Z,31.60
2022-12-23T07:11:24.930Z,30.73
2022-12-23T07:13:57.497Z,108.03
2022-12-23T07:16:29.611Z,49.22
2022-12-23T07:19:01.654Z,41.35
2022-12-23T07:21:34.417Z,33.03
2022-12-23T07:24:07.496Z,36.75
2022-12-23T07:26:41.028Z,37.67
2022-12-23T07:29:13.041Z,36.10
2022-12-23T07:31:45.063Z,56.80
2022-12-23T07:34:17.163Z,42.05
2022-12-23T07:36:49.122Z,39.28
2022-12-23T07:39:21.135Z,49.00
2022-12-23T07:42:16.547Z,37.63
2022-12-23T07:44:46.433Z,32.63
2022-12-23T07:47:18.396Z,35.85
2022-12-23T07:49:50.385Z,32.20
2022-12-23T07:52:22.686Z,36.67
2022-12-23T07:54:54.747Z,26.20
2022-12-23T07:57:29.367Z,27.05
2022-12-23T08:00:01.358Z,27.13
2022-12-23T08:02:33.427Z,30.13
2022-12-23T08:05:07.071Z,31.55
2022-12-23T08:07:39.306Z,29.23
2022-12-23T08:10:12.562Z,30.25
2022-12-23T08:12:46.597Z,39.35
2022-12-23T08:15:18.719Z,33.10
2022-12-23T08:17:50.660Z,32.55
2022-12-23T08:20:22.687Z,41.03
2022-12-23T08:22:55.412Z,40.45
2022-12-23T08:25:27.441Z,37.13
2022-12-23T08:28:00.791Z,38.55
2022-12-23T08:30:32.870Z,33.00
2022-12-23T08:33:04.905Z,31.70
2022-12-23T08:35:37.479Z,25.50
2022-12-23T08:38:09.467Z,25.45
2022-12-23T08:40:41.601Z,24.55
2022-12-23T08:43:14.963Z,41.38
2022-12-23T11:17:35.993Z,24.30
2022-12-23T11:20:14.210Z,25.83
2022-12-23T11:22:49.332Z,39.22
2022-12-23T11:25:31.733Z,23.30
2022-12-23T11:28:07.764Z,17.98
2022-12-23T11:30:56.467Z,16.73
2022-12-23T11:33:32.625Z,25.98
2022-12-23T11:36:07.728Z,16.27
2022-12-23T11:38:49.942Z,19.60
2022-12-23T11:41:25.772Z,19.08
2022-12-23T11:44:01.564Z,18.42
2022-12-23T11:46:35.287Z,17.27
2022-12-23T11:49:19.638Z,19.20
2022-12-23T11:52:01.951Z,21.80
2022-12-23T11:54:34.603Z,24.38
2022-12-23T11:57:15.907Z,20.40
2022-12-23T11:59:49.956Z,22.42
2022-12-23T12:02:29.656Z,20.42
2022-12-23T12:05:06.825Z,14.77
2022-12-23T12:07:42.321Z,18.45
2022-12-23T12:10:18.573Z,18.20
2022-12-23T12:12:55.228Z,18.90
2022-12-23T12:15:37.337Z,14.00
2022-12-23T12:18:13.076Z,23.13
2022-12-23T12:20:51.991Z,21.90
2022-12-23T12:23:29.446Z,19.35
2022-12-23T12:26:06.312Z,17.90
2022-12-23T12:28:41.658Z,26.95
2022-12-23T12:31:22.331Z,17.45
2022-12-23T12:34:02.311Z,38.58
2022-12-23T12:36:43.960Z,31.30
2022-12-23T12:39:21.159Z,40.78
2022-12-23T12:42:05.053Z,32.03
2022-12-23T12:44:43.819Z,23.98
2022-12-23T12:47:52.134Z,22.45
2022-12-23T12:50:18.037Z,20.77
2022-12-23T12:52:55.246Z,30.08
2022-12-23T12:55:31.961Z,20.15
2022-12-23T12:58:03.936Z,18.88
2022-12-23T13:00:49.154Z,17.67
2022-12-23T13:03:45.143Z,16.58
2022-12-23T13:06:24.017Z,16.88
2022-12-23T13:09:07.629Z,23.45
2022-12-23T13:11:48.277Z,15.23
2022-12-23T13:14:33.975Z,18.48
2022-12-23T13:17:12.738Z,20.15
2022-12-23T13:19:51.467Z,17.88
2022-12-23T13:22:28.240Z,15.27
2022-12-23T13:25:05.968Z,16.23
2022-12-23T13:27:44.435Z,20.25
2022-12-23T13:30:19.213Z,16.08
2022-12-23T13:33:14.182Z,25.40
2022-12-23T13:36:06.244Z,15.35
2022-12-23T13:38:56.509Z,27.67
2022-12-23T13:41:33.754Z,26.90
2022-12-23T13:44:08.782Z,16.67
2022-12-23T13:46:52.009Z,30.85
2022-12-23T13:49:35.956Z,66.25
2022-12-23T13:52:11.975Z,39.60
2022-12-23T13:54:59.830Z,26.23
2022-12-23T13:57:52.209Z,45.85
2022-12-23T14:00:28.544Z,26.80
2022-12-23T14:03:19.530Z,22.50
2022-12-23T14:05:53.342Z,27.15
2022-12-23T14:08:31.633Z,35.15
2022-12-23T14:11:14.731Z,28.60
2022-12-23T14:13:56.414Z,32.30
2022-12-23T14:16:46.386Z,35.38
2022-12-23T14:19:43.673Z,28.35
2022-12-23T14:22:35.636Z,27.50
2022-12-23T14:25:46.430Z,28.58
2022-12-23T14:28:37.240Z,22.25
2022-12-23T14:31:34.278Z,23.63
2022-12-23T14:34:25.845Z,25.17
2022-12-23T14:37:38.166Z,29.00
2022-12-23T14:40:43.432Z,31.05
2022-12-23T14:43:30.650Z,22.85
2022-12-23T14:46:07.289Z,24.73
2022-12-23T14:49:39.157Z,21.38
2022-12-23T14:52:48.349Z,24.77
2022-12-23T14:55:43.940Z,19.92
2022-12-23T14:58:44.887Z,16.42
2022-12-23T15:01:20.473Z,24.15
2022-12-23T15:03:59.278Z,15.48
2022-12-23T15:06:38.205Z,19.60
2022-12-23T15:09:20.831Z,21.70
2022-12-23T15:11:54.807Z,22.10
2022-12-23T15:14:32.837Z,16.70
2022-12-23T15:17:18.561Z,18.77
2022-12-23T15:19:50.594Z,19.30
2022-12-23T15:22:32.622Z,15.52
2022-12-23T15:25:06.315Z,19.63
2022-12-23T15:27:38.299Z,14.23
2022-12-23T15:30:12.885Z,13.52
2022-12-23T15:32:46.902Z,17.10
2022-12-23T15:35:23.824Z,12.35
2022-12-23T15:37:58.605Z,16.73
2022-12-23T15:40:33.940Z,15.98
2022-12-23T15:43:18.671Z,21.83
2022-12-23T15:45:51.851Z,21.55
2022-12-23T15:48:25.895Z,16.58
2022-12-23T15:51:02.664Z,15.90
2022-12-23T15:53:39.441Z,22.58
2022-12-23T15:56:21.275Z,23.17
2022-12-23T15:58:55.263Z,27.83
2022-12-23T16:01:27.744Z,19.90
2022-12-23T16:04:00.608Z,27.58
2022-12-23T16:06:34.679Z,20.95
2022-12-23T16:09:25.945Z,29.40
2022-12-23T16:12:00.535Z,22.08
2022-12-23T16:14:38.894Z,33.50
2022-12-23T16:17:23.962Z,46.20
2022-12-23T16:20:18.849Z,26.75
2022-12-23T16:22:53.123Z,33.70
2022-12-23T16:25:31.283Z,31.77
2022-12-23T16:28:06.339Z,33.00
2022-12-23T16:30:41.785Z,25.00
2022-12-23T16:33:37.402Z,19.08
2022-12-23T16:36:16.927Z,18.75
2022-12-23T16:38:51.151Z,26.42
2022-12-23T16:41:24.493Z,30.35
2022-12-23T16:43:56.451Z,26.60
2022-12-23T16:46:34.158Z,30.73
2022-12-23T16:49:11.138Z,22.60
2022-12-23T16:51:43.171Z,29.23
2022-12-23T16:54:17.404Z,20.40
2022-12-23T16:56:50.713Z,26.45
2022-12-23T16:59:24.877Z,25.80
2022-12-23T17:02:03.204Z,39.80
2022-12-23T17:04:35.769Z,24.70
2022-12-23T17:07:11.617Z,17.75
2022-12-23T17:09:43.523Z,12.93
2022-12-23T17:12:16.905Z,19.42
2022-12-23T17:14:48.848Z,13.30
2022-12-23T17:17:23.681Z,16.05
2022-12-23T17:19:57.618Z,18.52
2022-12-23T17:22:32.582Z,17.02
2022-12-23T17:25:05.073Z,16.25
2022-12-23T17:27:38.418Z,14.50
2022-12-23T17:30:15.134Z,14.38
2022-12-23T17:32:52.317Z,15.35
2022-12-23T17:35:25.412Z,14.13
2022-12-23T17:37:57.368Z,16.63
2022-12-23T17:40:36.071Z,16.40
2022-12-23T17:43:12.427Z,29.75
2022-12-23T17:45:45.613Z,15.55
2022-12-23T17:48:21.472Z,53.47
2022-12-23T17:50:56.167Z,19.00
2022-12-23T17:53:28.108Z,46.50
2022-12-23T17:56:00.034Z,68.22
2022-12-23T17:58:33.395Z,57.60
2022-12-23T18:01:05.866Z,32.65
2022-12-23T18:03:37.842Z,41.75
2022-12-23T18:06:12.121Z,28.60
2022-12-23T18:08:44.409Z,23.90
2022-12-23T18:11:21.102Z,17.25
2022-12-23T18:13:54.669Z,53.10
2022-12-23T18:16:26.769Z,40.03
2022-12-23T18:18:58.782Z,53.20
2022-12-23T18:21:30.811Z,61.97
2022-12-23T18:24:02.781Z,47.97
2022-12-23T18:26:34.733Z,76.28
2022-12-23T18:29:08.102Z,62.92
2022-12-23T18:31:50.601Z,69.35
2022-12-23T18:34:23.764Z,40.53
2022-12-23T18:36:55.832Z,29.17
2022-12-23T18:39:27.870Z,31.35
2022-12-23T18:41:59.843Z,30.95
2022-12-23T18:44:33.153Z,23.85
2022-12-23T18:47:05.151Z,24.95
2022-12-23T18:49:37.621Z,25.02
2022-12-23T18:52:12.711Z,19.67
2022-12-23T18:54:44.651Z,18.80
2022-12-23T18:57:16.628Z,26.48
2022-12-23T18:59:49.936Z,13.23
2022-12-23T19:02:21.907Z,11.65
2022-12-23T19:04:53.885Z,11.48
2022-12-23T19:07:25.849Z,10.30
2022-12-23T19:09:57.809Z,36.88
2022-12-23T19:12:29.788Z,52.75
2022-12-23T19:15:03.414Z,30.48
2022-12-23T19:17:35.435Z,18.63
2022-12-23T19:20:10.227Z,23.33
2022-12-23T19:22:42.150Z,24.58
2022-12-23T19:25:17.104Z,14.75
2022-12-23T19:27:49.071Z,46.60
2022-12-23T19:30:22.474Z,23.52
2022-12-23T19:32:54.559Z,36.55
2022-12-23T19:35:26.516Z,28.17
2022-12-23T19:37:58.518Z,37.60
2022-12-23T19:40:30.509Z,40.38
2022-12-23T19:43:03.438Z,15.40
2022-12-23T19:45:36.822Z,14.13
2022-12-23T19:48:09.274Z,14.80
2022-12-23T19:50:41.272Z,8.95
2022-12-23T19:53:13.282Z,30.88
2022-12-23T19:55:45.239Z,10.60
2022-12-23T19:58:17.193Z,11.20
2022-12-23T20:00:50.635Z,8.68
2022-12-23T20:03:22.647Z,8.65
2022-12-23T20:05:54.674Z,9.30
2022-12-23T20:08:26.629Z,12.05
2022-12-23T20:11:06.293Z,12.27
2022-12-23T20:13:38.810Z,15.48
2022-12-23T20:16:13.255Z,11.15
2022-12-23T20:18:45.438Z,11.55
2022-12-23T20:21:17.407Z,11.65
2022-12-23T20:23:50.101Z,8.05
2022-12-23T20:26:23.686Z,6.68
2022-12-23T20:28:56.051Z,10.77
2022-12-23T20:31:31.010Z,4.72
2022-12-23T20:34:04.392Z,7.90
2022-12-23T20:36:37.041Z,11.55
2022-12-23T20:39:09.164Z,7.95
2022-12-23T20:41:41.103Z,5.38
2022-12-23T20:47:06.767Z,10.30
2022-12-23T20:49:38.834Z,5.50
2022-12-23T20:52:10.892Z,10.90
2022-12-23T20:54:42.867Z,10.82
2022-12-23T20:57:14.907Z,10.05
2022-12-23T20:59:46.934Z,11.82
2022-12-23T21:02:20.604Z,12.00
2022-12-23T21:04:52.703Z,8.50
2022-12-23T21:07:26.328Z,10.40
2022-12-23T21:09:58.472Z,13.00
2022-12-23T21:12:30.593Z,40.60
2022-12-23T21:15:02.586Z,13.75
2022-12-23T21:17:35.922Z,11.18
2022-12-23T21:20:09.232Z,8.13
2022-12-23T21:22:41.303Z,10.70
2022-12-23T21:25:13.279Z,5.57
2022-12-23T21:27:45.303Z,5.07
2022-12-23T21:30:17.394Z,11.05
2022-12-23T21:32:51.879Z,82.50
2022-12-23T21:35:23.848Z,13.23
2022-12-23T21:37:55.805Z,6.57
2022-12-23T21:40:27.845Z,11.77
2022-12-23T21:43:05.408Z,7.22
2022-12-23T21:48:13.542Z,15.25
2022-12-23T21:50:45.485Z,146.77
2022-12-23T21:53:17.485Z,25.90
2022-12-23T21:55:49.515Z,21.58
2022-12-23T21:58:21.442Z,12.55
2022-12-23T22:00:53.446Z,6.28
2022-12-23T22:03:27.333Z,10.55
2022-12-23T22:06:09.955Z,14.45
2022-12-23T22:08:43.580Z,16.65
2022-12-23T22:11:17.625Z,10.65
2022-12-23T22:13:50.040Z,7.43
2022-12-23T22:16:23.949Z,9.20
2022-12-23T22:18:58.752Z,14.82
2022-12-23T22:21:32.394Z,9.98
2022-12-23T22:24:05.188Z,8.77
2022-12-23T22:26:37.630Z,15.05
2022-12-23T22:29:11.232Z,8.60
2022-12-23T22:31:45.887Z,12.88
2022-12-23T22:34:21.092Z,9.15
2022-12-23T22:36:53.107Z,5.47
2022-12-23T22:39:25.323Z,4.85
2022-12-23T22:41:57.308Z,6.03
2022-12-23T22:44:29.272Z,2.90
2022-12-23T22:47:01.741Z,3.55
2022-12-23T22:49:35.195Z,3.60
2022-12-23T22:52:07.122Z,1.52
2022-12-23T22:54:39.141Z,5.35
2022-12-23T22:57:11.397Z,3.15
2022-12-23T22:59:43.722Z,2.70
2022-12-23T23:02:15.779Z,1.50
2022-12-23T23:04:49.356Z,3.33
2022-12-23T23:07:21.320Z,2.65
2022-12-23T23:09:53.337Z,1.25
2022-12-23T23:12:25.424Z,5.07
2022-12-23T23:14:57.353Z,4.93
2022-12-23T23:17:29.397Z,3.60
2022-12-23T23:20:02.886Z,4.47
2022-12-23T23:22:34.791Z,7.45
2022-12-23T23:25:07.489Z,2.95
2022-12-23T23:27:39.434Z,3.97
2022-12-23T23:30:11.989Z,4.03
2022-12-23T23:32:44.000Z,4.50
2022-12-23T23:35:17.467Z,3.10
2022-12-23T23:37:49.426Z,3.35
2022-12-23T23:40:21.437Z,5.13
2022-12-23T23:42:53.877Z,1.98
2022-12-23T23:45:27.530Z,2.95
2022-12-23T23:47:59.602Z,4.50
2022-12-23T23:50:33.065Z,3.90
2022-12-23T23:53:05.253Z,7.35
2022-12-23T23:55:37.357Z,3.08
2022-12-23T23:58:10.668Z,4.72
